Station: Hartz Mountains

  Atmospheric Gas Attenuation - ITU Rec 676-11   --------------- db/100km ---------------
Date Time Temp RH % AH g/m3 Dew Point Wind Direction Speed kph Gust kph Barometer mB Rainfall Since 9am 24GHz 47GHz 76GHz 122GHz 134GHz 241GHz
23 08:20 7.5 87 6.97 5.5 35 59 1013.1 1.8 16.4 25.0 36.2 94.8 84.0 287.3
23 08:10 7.4 89 7.08 5.7 37 46 1013.1 1.8 16.6 25.2 36.7 96.1 85.6 292.9
23 08:00 7.4 91 7.24 6 39 70 1013.1 1.8 17.0 25.5 37.4 97.9 87.8 300.5
23 07:50 7.4 92 7.32 6.2 30 37 1013.1 1.8 17.1 25.6 37.7 98.8 88.9 304.4
23 07:40 7.6 91 7.33 6.2 50 69 1013.1 1.8 17.1 25.6 37.6 98.6 88.8 304.1
23 07:30 7.4 93 7.4 6.3 35 57 1013.1 1.8 17.3 25.8 38.0 99.6 90.0 308.2
23 07:20 7.3 94 7.43 6.4 30 37 1013.1 1.8 17.4 25.9 38.2 100.1 90.5 310.1
23 07:10 7.2 94 7.38 6.3 32 39 1013.1 1.8 17.3 25.8 38.0 99.7 90.0 308.1
23 07:00 7.1 95 7.41 6.4 30 57 1013.1 1.8 17.3 25.9 38.2 100.1 90.5 309.9
23 06:50 7.1 95 7.41 6.4 32 43 1013.1 1.8 17.3 25.9 38.2 100.1 90.5 309.9
23 06:40 6.9 96 7.39 6.3 20 37 1013.1 1.6 17.3 25.9 38.2 100.2 90.5 309.7
23 06:30 7.1 96 7.49 6.5 24 63 1013.1 1.6 17.5 26.0 38.5 101.0 91.6 313.8
23 06:20 7.2 95 7.46 6.5 30 39 1013.1 1.6 17.4 25.9 38.4 100.6 91.1 311.9
23 06:10 7.1 95 7.41 6.4 24 37 1013.1 1.6 17.3 25.9 38.2 100.1 90.5 309.9
23 06:00 7.3 92 7.27 6.1 24 41 1013.1 1.6 17.0 25.6 37.5 98.3 88.3 302.4
23 05:50 7.3 93 7.35 6.2 22 26 1013.1 1.6 17.2 25.7 37.9 99.2 89.4 306.2
23 05:40 7.2 93 7.3 6.1 22 30 1013.1 1.6 17.1 25.7 37.7 98.8 88.9 304.2
23 05:30 7.2 93 7.3 6.1 32 35 1013.1 1.6 17.1 25.7 37.7 98.8 88.9 304.2
23 05:20 7.1 94 7.33 6.2 17 24 1013.1 1.6 17.2 25.7 37.9 99.2 89.4 306.0
23 05:10 7 95 7.36 6.3 22 24 1013.1 1.6 17.2 25.8 38.0 99.7 89.9 307.9
23 05:00 7.1 94 7.33 6.2 28 46 1013.1 1.6 17.2 25.7 37.9 99.2 89.4 306.0
23 04:50 7.1 95 7.41 6.4 32 39 1013.1 1.6 17.3 25.9 38.2 100.1 90.5 309.9
23 04:40 7 96 7.44 6.4 19 24 1013.1 1.6 17.4 26.0 38.4 100.6 91.0 311.8
23 04:30 7 97 7.52 6.6 24 52 1013.1 1.6 17.6 26.1 38.7 101.5 92.1 315.7
23 04:20 7 98 7.6 6.7 26 35 1013.1 1.6 17.8 26.2 39.1 102.4 93.3 319.6
23 04:10 6.9 97 7.47 6.5 24 28 1013.1 1.4 17.5 26.0 38.6 101.1 91.6 313.6
23 04:00 6.9 97 7.47 6.5 24 54 1013.1 1.4 17.5 26.0 38.6 101.1 91.6 313.6
23 03:50 6.8 97 7.42 6.4 19 24 1013.1 1.4 17.4 26.0 38.4 100.6 91.0 311.6
23 03:40 6.9 96 7.39 6.3 17 20 1013.1 1.4 17.3 25.9 38.2 100.2 90.5 309.7
23 03:30 6.9 95 7.32 6.2 22 32 1013.1 1.4 17.2 25.8 37.9 99.4 89.5 306.3
23 03:20 7 94 7.29 6.1 13 17 1013.1 1.4 17.1 25.7 37.8 98.9 89.0 304.5
23 03:10 7.1 93 7.26 6 19 24 1013.1 1.4 17.0 25.6 37.6 98.5 88.4 302.7
23 03:00 6.9 95 7.32 6.2 26 32 1013.1 1.4 17.2 25.8 37.9 99.4 89.5 306.3
23 02:50 6.8 96 7.35 6.2 17 22 1013.1 1.4 17.2 25.9 38.1 99.9 90.0 308.2
23 02:40 6.9 96 7.39 6.3 28 32 1013.1 1.4 17.3 25.9 38.2 100.2 90.5 309.7
23 02:30 6.8 96 7.35 6.2 26 39 1013.1 1.4 17.2 25.9 38.1 99.9 90.0 308.2
23 02:20 6.9 95 7.32 6.2 28 35 1013.1 1.4 17.2 25.8 37.9 99.4 89.5 306.3
23 02:10 6.8 96 7.35 6.2 19 26 1013.1 1.4 17.2 25.9 38.1 99.9 90.0 308.2
23 02:00 6.9 95 7.32 6.2 33 56 1013.1 1.4 17.2 25.8 37.9 99.4 89.5 306.3
23 01:50 6.9 95 7.32 6.2 35 39 1013.1 1.4 17.2 25.8 37.9 99.4 89.5 306.3
23 01:40 6.9 96 7.39 6.3 39 59 1013.1 1.4 17.3 25.9 38.2 100.2 90.5 309.7
23 01:30 6.9 97 7.47 6.5 32 52 1013.1 1.4 17.5 26.0 38.6 101.1 91.6 313.6
23 01:20 6.9 97 7.47 6.5 24 35 1013.1 1.4 17.5 26.0 38.6 101.1 91.6 313.6
23 01:10 6.9 97 7.47 6.5 43 57 1013.1 1.4 17.5 26.0 38.6 101.1 91.6 313.6
23 01:00 7 98 7.6 6.7 32 57 1013.1 1.4 17.8 26.2 39.1 102.4 93.3 319.6
23 00:50 7 99 7.67 6.9 24 39 1013.1 1.4 17.9 26.3 39.4 103.2 94.2 323.0
23 00:40 7 99 7.67 6.9 32 39 1013.1 1.4 17.9 26.3 39.4 103.2 94.2 323.0
23 00:30 7.1 99 7.72 7 26 35 1013.1 1.4 18.0 26.4 39.5 103.6 94.8 325.0
23 00:20 7.1 99 7.72 7 35 43 1013.1 1.2 18.0 26.4 39.5 103.6 94.8 325.0
23 00:10 7.2 99 7.78 7.1 24 32 1013.1 1.2 18.1 26.5 39.7 104.2 95.5 327.6
23 00:00 7.2 99 7.78 7.1 35 59 1013.1 1 18.1 26.5 39.7 104.2 95.5 327.6
22 23:50 7.2 99 7.78 7.1 43 57 1013.1 0.8 18.1 26.5 39.7 104.2 95.5 327.6
22 23:40 7.2 99 7.78 7.1 37 48 1013.1 0.6 18.1 26.5 39.7 104.2 95.5 327.6
22 23:30 7.2 99 7.78 7.1 24 33 1013.1 0.6 18.1 26.5 39.7 104.2 95.5 327.6
22 23:20 7.2 98 7.7 6.9 24 33 1013.1 0.4 18.0 26.3 39.4 103.3 94.4 323.6
22 23:10 7.2 97 7.62 6.8 28 41 1013.1 0.4 17.8 26.2 39.0 102.4 93.3 319.7
22 23:00 7.2 98 7.7 6.9 33 56 1013.1 0.4 18.0 26.3 39.4 103.3 94.4 323.6
22 22:50 7.2 98 7.7 6.9 30 35 1013.1 0.4 18.0 26.3 39.4 103.3 94.4 323.6
22 22:40 7.2 98 7.7 6.9 22 28 1013.1 0.4 18.0 26.3 39.4 103.3 94.4 323.6
22 22:30 7.2 98 7.7 6.9 20 32 1013.1 0.2 18.0 26.3 39.4 103.3 94.4 323.6
22 22:20 7.3 97 7.67 6.9 30 37 1013.1 0.2 17.9 26.3 39.2 102.8 93.9 321.8
22 22:10 7.3 97 7.67 6.9 33 48 1013.1 0.2 17.9 26.3 39.2 102.8 93.9 321.8
22 22:00 7.1 98 7.65 6.8 24 48 1013.1 0.2 17.9 26.3 39.2 102.9 93.8 321.6
22 21:50 7.2 99 7.78 7.1 22 30 1013.1 0.2 18.1 26.5 39.7 104.2 95.5 327.6
22 21:40 7.2 99 7.78 7.1 28 48 1013.1 0.2 18.1 26.5 39.7 104.2 95.5 327.6
22 21:30 7.2 99 7.78 7.1 26 30 1013.1 0.2 18.1 26.5 39.7 104.2 95.5 327.6
22 21:20 7.2 99 7.78 7.1 26 37 1013.1 0.2 18.1 26.5 39.7 104.2 95.5 327.6
22 21:10 7.2 99 7.78 7.1 28 32 1013.1 0.2 18.1 26.5 39.7 104.2 95.5 327.6
22 21:00 7.1 99 7.72 7 24 37 1013.1 0.2 18.0 26.4 39.5 103.6 94.8 325.0
22 20:50 7.1 99 7.72 7 28 37 1013.1 0.2 18.0 26.4 39.5 103.6 94.8 325.0
22 20:40 7 98 7.6 6.7 33 39 1013.1 0.2 17.8 26.2 39.1 102.4 93.3 319.6
22 20:30 6.9 98 7.55 6.6 28 54 1013.1 0.2 17.7 26.2 38.9 102.0 92.7 317.5
22 20:20 6.9 98 7.55 6.6 24 35 1013.1 0.2 17.7 26.2 38.9 102.0 92.7 317.5
22 20:10 6.9 97 7.47 6.5 35 48 1013.1 0.2 17.5 26.0 38.6 101.1 91.6 313.6
22 20:00 6.7 98 7.45 6.4 32 52 1013.1 0.2 17.4 26.1 38.6 101.1 91.5 313.5
22 19:50 6.6 98 7.4 6.3 26 33 1013.1 0.2 17.3 26.0 38.4 100.7 91.0 311.4
22 19:40 6.6 98 7.4 6.3 35 46 1013.1 0.2 17.3 26.0 38.4 100.7 91.0 311.4
22 19:30 6.6 97 7.33 6.2 41 54 1013.1 0.2 17.2 25.9 38.1 99.9 90.0 308.0
22 19:20 6.5 96 7.2 5.9 24 30 1013.1 0.2 16.9 25.7 37.6 98.6 88.3 302.1
22 19:10 6.5 95 7.13 5.8 32 43 1013.1 0.2 16.8 25.6 37.3 97.8 87.3 298.7
22 19:00 6.7 92 6.99 5.5 28 44 1013.1 0 16.5 25.3 36.6 96.0 85.2 291.2
22 18:50 6.7 90 6.84 5.2 19 28 1013.1 0 16.1 25.0 36.0 94.3 83.1 284.0
22 18:40 6.8 90 6.89 5.3 30 46 1013.1 0 16.2 25.1 36.2 94.7 83.7 286.1
22 18:30 6.7 90 6.84 5.2 28 44 1013.1 0 16.1 25.0 36.0 94.3 83.1 284.0
22 18:20 6.6 90 6.8 5.1 22 32 1013.1 0 16.0 25.0 35.9 94.0 82.7 282.5
22 18:10 6.7 90 6.84 5.2 24 32 1013.1 0 16.1 25.0 36.0 94.3 83.1 284.0
22 18:00 6.7 90 6.84 5.2 28 43 1013.1 0 16.1 25.0 36.0 94.3 83.1 284.0
22 17:50 6.8 89 6.81 5.1 32 41 1013.1 0 16.1 25.0 35.9 93.8 82.6 282.2
22 17:40 6.8 89 6.81 5.1 24 33 1013.1 0 16.1 25.0 35.9 93.8 82.6 282.2
22 17:30 6.7 90 6.84 5.2 30 43 1013.1 0 16.1 25.0 36.0 94.3 83.1 284.0
22 17:20 6.8 90 6.89 5.3 33 48 1013.1 0 16.2 25.1 36.2 94.7 83.7 286.1
22 17:10 6.8 89 6.81 5.1 35 46 1013.1 0 16.1 25.0 35.9 93.8 82.6 282.2
22 17:00 6.9 88 6.78 5.1 35 52 1013.1 0 16.0 24.9 35.7 93.4 82.1 280.5
22 16:50 6.8 90 6.89 5.3 26 33 1013.1 0 16.2 25.1 36.2 94.7 83.7 286.1
22 16:40 6.9 88 6.78 5.1 35 39 1013.1 0 16.0 24.9 35.7 93.4 82.1 280.5
22 16:30 6.8 89 6.81 5.1 33 41 1013.1 0 16.1 25.0 35.9 93.8 82.6 282.2
22 16:20 6.9 90 6.93 5.4 37 43 1013.1 0 16.3 25.1 36.3 95.0 84.1 287.6
22 16:10 6.9 90 6.93 5.4 32 41 1013.1 0 16.3 25.1 36.3 95.0 84.1 287.6
22 16:00 6.9 89 6.85 5.2 32 48 1013.1 0 16.1 25.0 36.0 94.2 83.0 283.8
22 15:50 6.9 90 6.93 5.4 30 35 1013.1 0 16.3 25.1 36.3 95.0 84.1 287.6

Last Refresh: 23-Jul-2024 07:57:28

Bureau of Meteorology